Главная страница
METAR-TAF:

METAR-TAF

Аэропорты :

Нукус, Узбекистан

широта: 42-28-48N, долгота: 059-37-48E, высота над уровнем моря: м

Текущие метеонаблюдения

Эта сводка был подготовлена 37 минут назад, в 16:00 UTC
Ветер 4 Узел от северо-западный
Температура 34°C
Влажность 28%
Давление 1007 hPa
Видимость 10 км и более
Нет облачности ниже 1500 м, и нет кучево-дождевой облачности

METAR: UTNN 231600Z 32004KT CAVOK 34/13 Q1007 R33/CLRD60 NOSIG

Время: 21:37 (16:37 UTC)

Прогноз

Эта сводка был подготовлена 5 часа и 37 минут назад, в 11:00 UTC
Прогноз действительный с 23-го 12 UTC до 24-го 12 UTC
Ветер 12 Узел от северный
Видимость 10 км и более
Нет облачности ниже 1500 м, и нет кучево-дождевой облачности
временами
С 23-го 16 UTC до 24-го 04 UTC
Ветер 4 Узел переменных направлений

TAF: UTNN 231100Z 2312/2412 01012KT CAVOK TEMPO 2316/2404 VRB04KT

Метеонаблюдения и прогнозы для более 4000 аэропортов (сводки METAR и TAF).

Имеющиеся станции представлены на карте желтыми и красными точками.

Чтобы увидеть название станции, наведите на нее мышь.

Затем щелкните, чтобы увидеть метеонаблюдения и метеопрогнозы.

Управление картой: чтобы увеличить масштаб, щелкните зеленые кнопки с черным крестиком; чтобы уменьшить масштаб, щелкните зеленую кнопку с тире; для просмотра соседних карт щелкайте зеленые стрелки.


METAR-TAF: